createdAt,value
2023-03-04T00:02:07.586Z,15.50
2023-03-04T00:04:36.094Z,15.80
2023-03-04T00:07:03.813Z,18.25
2023-03-04T00:09:31.435Z,25.80
2023-03-04T00:11:59.061Z,12.50
2023-03-04T00:14:28.797Z,23.23
2023-03-04T00:16:58.830Z,26.17
2023-03-04T00:19:26.403Z,20.13
2023-03-04T00:21:53.887Z,32.28
2023-03-04T00:24:21.530Z,31.60
2023-03-04T00:26:49.119Z,31.27
2023-03-04T00:29:16.808Z,21.95
2023-03-04T00:31:44.439Z,29.02
2023-03-04T00:34:13.449Z,23.45
2023-03-04T00:36:41.004Z,26.77
2023-03-04T00:39:08.661Z,23.13
2023-03-04T00:41:36.326Z,26.55
2023-03-04T00:44:04.041Z,25.95
2023-03-04T00:46:31.655Z,32.17
2023-03-04T00:48:59.151Z,29.02
2023-03-04T00:51:27.957Z,21.02
2023-03-04T00:53:55.669Z,32.70
2023-03-04T00:56:23.663Z,23.02
2023-03-04T00:58:51.233Z,27.83
2023-03-04T01:01:18.746Z,23.67
2023-03-04T01:03:46.257Z,25.73
2023-03-04T01:06:13.741Z,15.05
2023-03-04T01:08:42.921Z,19.25
2023-03-04T01:11:10.653Z,19.05
2023-03-04T01:13:38.618Z,31.80
2023-03-04T01:16:07.029Z,26.55
2023-03-04T01:18:34.956Z,21.80
2023-03-04T01:21:02.447Z,27.67
2023-03-04T01:23:30.204Z,21.42
2023-03-04T01:25:59.124Z,18.23
2023-03-04T01:28:26.780Z,15.65
2023-03-04T01:30:54.430Z,19.98
2023-03-04T01:33:22.136Z,28.35
2023-03-04T01:35:49.597Z,28.95
2023-03-04T01:38:17.085Z,23.73
2023-03-04T01:40:44.774Z,20.77
2023-03-04T01:43:17.625Z,24.27
2023-03-04T01:45:45.081Z,24.63
2023-03-04T01:48:14.004Z,27.27
2023-03-04T01:50:41.480Z,22.25
2023-03-04T01:53:17.687Z,28.92
2023-03-04T01:55:45.187Z,12.50
2023-03-04T01:58:14.254Z,21.85
2023-03-04T02:00:41.977Z,25.40
2023-03-04T02:03:11.422Z,19.00
2023-03-04T02:05:40.925Z,17.88
2023-03-04T02:08:09.199Z,21.55
2023-03-04T02:10:37.020Z,25.50
2023-03-04T02:13:04.920Z,19.75
2023-03-04T02:15:33.751Z,17.83
2023-03-04T02:18:01.948Z,22.80
2023-03-04T02:20:37.748Z,21.23
2023-03-04T02:23:10.282Z,18.85
2023-03-04T02:25:43.802Z,16.42
2023-03-04T02:28:12.681Z,20.38
2023-03-04T02:30:41.197Z,23.50
2023-03-04T02:33:14.280Z,15.80
2023-03-04T02:38:10.928Z,20.00
2023-03-04T02:40:39.072Z,19.13
2023-03-04T02:43:06.562Z,12.93
2023-03-04T02:45:38.606Z,19.73
2023-03-04T02:48:06.895Z,19.75
2023-03-04T02:50:37.112Z,18.17
2023-03-04T02:53:05.283Z,20.80
2023-03-04T02:55:33.196Z,18.67
2023-03-04T02:58:00.797Z,21.50
2023-03-04T03:00:28.828Z,13.35
2023-03-04T03:02:58.049Z,27.10
2023-03-04T03:05:27.043Z,16.90
2023-03-04T03:07:54.860Z,22.33
2023-03-04T03:10:22.478Z,11.18
2023-03-04T03:12:49.980Z,18.13
2023-03-04T03:15:17.676Z,11.85
2023-03-04T03:17:45.248Z,22.33
2023-03-04T03:20:15.040Z,25.58
2023-03-04T03:22:43.218Z,19.20
2023-03-04T03:25:12.413Z,17.92
2023-03-04T03:27:39.971Z,12.15
2023-03-04T03:30:09.207Z,20.35
2023-03-04T03:32:39.369Z,14.35
2023-03-04T03:35:07.298Z,18.02
2023-03-04T03:37:36.078Z,18.63
2023-03-04T03:40:03.681Z,18.17
2023-03-04T03:42:31.141Z,15.93
2023-03-04T03:44:58.624Z,17.77
2023-03-04T03:47:26.095Z,19.27
2023-03-04T03:49:53.692Z,22.83
2023-03-04T03:52:21.152Z,8.35
2023-03-04T03:54:49.945Z,17.00
2023-03-04T03:57:17.413Z,18.25
2023-03-04T03:59:44.890Z,19.50
2023-03-04T04:02:12.497Z,7.38
2023-03-04T04:04:40.048Z,18.45
2023-03-04T04:07:07.553Z,15.20
2023-03-04T04:09:35.305Z,22.25
2023-03-04T04:12:05.913Z,14.45
2023-03-04T04:14:33.454Z,11.65
2023-03-04T04:17:01.412Z,12.98
2023-03-04T04:19:29.106Z,10.45
2023-03-04T04:21:56.644Z,13.35
2023-03-04T04:24:24.191Z,13.75
2023-03-04T04:26:51.705Z,15.77
2023-03-04T04:29:21.019Z,10.30
2023-03-04T04:31:48.486Z,14.55
2023-03-04T04:34:15.980Z,12.13
2023-03-04T04:36:43.522Z,11.70
2023-03-04T04:39:11.009Z,12.23
2023-03-04T04:41:40.196Z,16.15
2023-03-04T04:44:08.113Z,9.88
2023-03-04T04:46:37.219Z,11.93
2023-03-04T04:49:05.420Z,15.15
2023-03-04T04:51:33.309Z,16.80
2023-03-04T04:54:01.866Z,13.23
2023-03-04T04:56:29.764Z,14.70
2023-03-04T04:58:58.717Z,11.65
2023-03-04T05:01:26.734Z,9.00
2023-03-04T05:03:55.918Z,9.00
2023-03-04T05:06:24.740Z,12.30
2023-03-04T05:08:52.508Z,9.63
2023-03-04T05:11:20.723Z,14.85
2023-03-04T05:13:48.897Z,11.48
2023-03-04T05:16:16.965Z,11.35
2023-03-04T05:18:44.547Z,12.30
2023-03-04T05:21:13.395Z,17.80
2023-03-04T05:23:44.384Z,11.40
2023-03-04T05:26:14.770Z,12.50
2023-03-04T05:28:42.292Z,5.22
2023-03-04T05:31:10.347Z,8.57
2023-03-04T05:33:38.608Z,8.95
2023-03-04T05:36:07.590Z,4.68
2023-03-04T05:38:37.074Z,8.55
2023-03-04T05:41:06.322Z,19.70
2023-03-04T05:43:35.816Z,3.60
2023-03-04T05:46:04.129Z,14.00
2023-03-04T05:48:31.747Z,7.43
2023-03-04T05:51:00.779Z,9.65
2023-03-04T05:53:28.514Z,10.85
2023-03-04T05:55:59.193Z,7.82
2023-03-04T05:58:27.043Z,10.52
2023-03-04T06:00:54.530Z,8.43
2023-03-04T06:03:24.008Z,12.25
2023-03-04T06:05:51.547Z,10.35
2023-03-04T06:08:19.118Z,5.32
2023-03-04T06:10:46.628Z,10.18
2023-03-04T06:13:15.416Z,12.10
2023-03-04T06:15:42.902Z,12.07
2023-03-04T06:18:10.391Z,11.48
2023-03-04T06:20:38.399Z,6.68
2023-03-04T06:23:06.335Z,10.07
2023-03-04T06:25:33.850Z,15.95
2023-03-04T06:28:01.323Z,9.60
2023-03-04T06:30:30.149Z,24.65
2023-03-04T06:32:57.702Z,12.85
2023-03-04T06:35:25.245Z,11.73
2023-03-04T06:37:52.749Z,15.52
2023-03-04T06:40:20.537Z,6.90
2023-03-04T06:42:48.020Z,10.98
2023-03-04T06:45:15.523Z,5.95
2023-03-04T06:47:45.039Z,13.02
2023-03-04T06:50:13.835Z,12.65
2023-03-04T06:52:41.629Z,16.15
2023-03-04T06:55:10.797Z,7.78
2023-03-04T06:57:38.256Z,12.30
2023-03-04T07:00:07.232Z,10.98
2023-03-04T07:02:34.776Z,25.02
2023-03-04T07:05:04.029Z,10.45
2023-03-04T07:07:31.480Z,8.40
2023-03-04T07:09:58.976Z,4.15
2023-03-04T07:12:26.479Z,7.05
2023-03-04T07:14:54.130Z,8.15
2023-03-04T07:17:21.754Z,19.13
2023-03-04T07:19:49.504Z,25.55
2023-03-04T07:22:18.363Z,21.15
2023-03-04T07:24:45.855Z,10.80
2023-03-04T07:27:13.314Z,13.95
2023-03-04T07:29:40.792Z,8.18
2023-03-04T07:32:08.808Z,11.02
2023-03-04T07:34:36.399Z,14.48
2023-03-04T07:37:04.415Z,10.57
2023-03-04T07:39:33.362Z,10.32
2023-03-04T07:42:00.858Z,9.20
2023-03-04T07:44:28.535Z,5.80
2023-03-04T07:46:56.038Z,14.93
2023-03-04T07:49:23.511Z,3.45
2023-03-04T07:51:51.027Z,6.35
2023-03-04T07:54:20.108Z,12.43
2023-03-04T07:56:48.928Z,10.60
2023-03-04T07:59:16.394Z,6.28
2023-03-04T08:01:45.574Z,10.45
2023-03-04T08:04:13.237Z,6.82
2023-03-04T08:06:41.703Z,9.15
2023-03-04T08:09:09.998Z,8.82
2023-03-04T08:11:38.805Z,3.67
2023-03-04T08:14:09.149Z,8.07
2023-03-04T08:16:36.670Z,11.38
2023-03-04T08:19:05.398Z,5.32
2023-03-04T08:21:33.544Z,7.75
2023-03-04T08:24:04.080Z,6.90
2023-03-04T08:26:34.192Z,7.22
2023-03-04T08:29:02.834Z,6.97
2023-03-04T08:31:32.261Z,9.02
2023-03-04T08:33:59.837Z,8.88
2023-03-04T08:36:27.361Z,12.15
2023-03-04T08:38:54.832Z,4.60
2023-03-04T08:41:22.780Z,7.25
2023-03-04T08:43:50.242Z,8.55
2023-03-04T08:46:17.887Z,9.55
2023-03-04T08:48:46.697Z,7.43
2023-03-04T08:51:17.001Z,12.45
2023-03-04T08:53:45.169Z,7.60
2023-03-04T08:56:13.864Z,7.63
2023-03-04T08:58:41.368Z,5.95
2023-03-04T09:01:10.676Z,8.70
2023-03-04T09:03:38.452Z,7.28
2023-03-04T09:06:07.777Z,2.67
2023-03-04T09:08:35.901Z,7.18
2023-03-04T09:11:03.846Z,4.68
2023-03-04T09:13:32.065Z,4.07
2023-03-04T09:16:00.408Z,2.80
2023-03-04T09:18:28.279Z,7.97
2023-03-04T09:20:55.851Z,2.88
2023-03-04T09:23:24.656Z,6.22
2023-03-04T09:25:52.176Z,11.57
2023-03-04T09:28:20.607Z,9.38
2023-03-04T09:30:48.593Z,9.60
2023-03-04T09:33:16.342Z,13.98
2023-03-04T09:35:44.540Z,11.05
2023-03-04T09:38:12.172Z,10.95
2023-03-04T09:40:43.385Z,10.52
2023-03-04T09:43:16.105Z,13.80
2023-03-04T09:45:48.627Z,8.38
2023-03-04T09:48:19.481Z,18.48
2023-03-04T09:50:58.004Z,13.90
2023-03-04T09:53:32.635Z,12.70
2023-03-04T09:56:02.408Z,7.90
2023-03-04T09:58:40.310Z,6.30
2023-03-04T10:01:11.715Z,15.60
2023-03-04T10:03:44.137Z,10.73
2023-03-04T10:06:13.068Z,12.90
2023-03-04T10:08:43.124Z,15.85
2023-03-04T10:11:15.839Z,16.08
2023-03-04T10:13:51.393Z,8.63
2023-03-04T10:16:22.872Z,12.70
2023-03-04T10:18:53.908Z,9.95
2023-03-04T10:21:24.839Z,12.27
2023-03-04T10:23:54.242Z,13.95
2023-03-04T10:26:23.640Z,15.00
2023-03-04T10:28:51.427Z,21.73
2023-03-04T10:31:23.354Z,12.18
2023-03-04T10:33:51.052Z,20.98
2023-03-04T10:36:35.391Z,25.90
2023-03-04T10:39:05.043Z,15.98
2023-03-04T10:41:34.083Z,18.45
2023-03-04T10:44:03.224Z,15.95
2023-03-04T10:46:31.334Z,16.20
2023-03-04T10:48:59.540Z,14.85
2023-03-04T10:51:28.765Z,15.27
2023-03-04T10:53:58.678Z,17.17
2023-03-04T10:56:36.975Z,14.73
2023-03-04T10:59:37.933Z,18.00
2023-03-04T11:02:16.343Z,13.25
2023-03-04T11:04:44.011Z,19.10
2023-03-04T11:07:11.760Z,9.50
2023-03-04T11:09:40.327Z,19.60
2023-03-04T11:12:13.316Z,15.30
2023-03-04T11:17:19.140Z,13.48
2023-03-04T11:19:49.073Z,11.57
2023-03-04T11:22:17.929Z,11.45
2023-03-04T11:24:45.513Z,17.15
2023-03-04T11:27:19.499Z,15.73
2023-03-04T11:29:50.151Z,15.15
2023-03-04T11:32:22.797Z,13.15
2023-03-04T11:34:53.035Z,12.20
2023-03-04T11:37:25.678Z,10.40
2023-03-04T11:39:55.763Z,12.07
2023-03-04T11:42:34.166Z,17.63
2023-03-04T11:45:01.721Z,10.30
2023-03-04T11:47:42.939Z,14.43
2023-03-04T11:50:24.877Z,14.27
2023-03-04T11:53:10.567Z,9.45
2023-03-04T11:55:42.268Z,11.52
2023-03-04T11:58:31.571Z,6.15
2023-03-04T12:01:03.314Z,9.75
2023-03-04T12:03:57.479Z,9.27
2023-03-04T12:06:34.062Z,8.52
2023-03-04T12:09:09.527Z,11.35
2023-03-04T12:11:47.360Z,6.40
2023-03-04T12:14:23.810Z,12.25
2023-03-04T12:17:12.905Z,5.30
2023-03-04T12:19:51.867Z,8.60
2023-03-04T12:22:31.246Z,12.07
2023-03-04T12:25:28.926Z,10.00
2023-03-04T12:28:04.529Z,5.65
2023-03-04T12:30:42.497Z,8.13
2023-03-04T12:33:16.105Z,8.88
2023-03-04T12:35:48.399Z,7.07
2023-03-04T12:38:36.403Z,8.98
2023-03-04T12:41:12.562Z,8.73
2023-03-04T12:43:47.696Z,12.02
2023-03-04T12:46:25.694Z,8.57
2023-03-04T12:49:03.925Z,12.88
2023-03-04T12:51:34.599Z,7.97
2023-03-04T12:54:10.473Z,5.75
2023-03-04T12:56:40.360Z,6.28
2023-03-04T12:59:14.720Z,9.68
2023-03-04T13:01:46.836Z,7.32
2023-03-04T13:04:21.969Z,8.38
2023-03-04T13:06:50.630Z,6.07
2023-03-04T13:09:23.019Z,3.97
2023-03-04T13:11:58.496Z,6.57
2023-03-04T13:14:31.807Z,11.75
2023-03-04T13:17:02.734Z,9.45
2023-03-04T13:19:44.587Z,8.18
2023-03-04T13:22:32.113Z,13.23
2023-03-04T13:25:00.611Z,9.80
2023-03-04T13:27:49.135Z,9.68
2023-03-04T13:31:04.246Z,4.43
2023-03-04T13:33:50.081Z,9.98
2023-03-04T13:36:59.620Z,6.35
2023-03-04T13:39:35.168Z,6.70
2023-03-04T13:42:04.436Z,7.18
2023-03-04T13:45:00.200Z,7.40
2023-03-04T13:47:47.546Z,12.60
2023-03-04T13:50:35.307Z,14.23
2023-03-04T13:53:28.009Z,14.93
2023-03-04T13:56:22.297Z,12.50
2023-03-04T13:58:50.763Z,9.93
2023-03-04T14:01:27.661Z,8.73
2023-03-04T14:03:55.674Z,7.90
2023-03-04T14:06:26.348Z,7.18
2023-03-04T14:08:55.555Z,9.88
2023-03-04T14:11:34.006Z,7.75
2023-03-04T14:14:05.388Z,11.27
2023-03-04T14:16:36.798Z,11.23
2023-03-04T14:19:06.530Z,15.05
2023-03-04T14:21:36.762Z,17.17
2023-03-04T14:24:07.841Z,9.25
2023-03-04T14:26:35.848Z,13.63
2023-03-04T14:29:03.953Z,9.88
2023-03-04T14:31:32.803Z,13.70
2023-03-04T14:34:02.482Z,10.40
2023-03-04T14:36:33.068Z,8.82
2023-03-04T14:39:03.878Z,13.18
2023-03-04T14:41:34.633Z,7.72
2023-03-04T14:44:07.652Z,16.52
2023-03-04T14:49:03.725Z,12.35
2023-03-04T14:51:34.064Z,12.57
2023-03-04T14:54:02.968Z,13.00
2023-03-04T14:56:31.344Z,11.18
2023-03-04T14:58:59.711Z,9.05
2023-03-04T15:01:33.361Z,9.05
2023-03-04T15:04:03.277Z,7.43
2023-03-04T15:06:32.664Z,6.78
2023-03-04T15:09:04.572Z,6.75
2023-03-04T15:11:34.256Z,11.13
2023-03-04T15:14:02.708Z,9.60
2023-03-04T15:16:51.013Z,18.77
2023-03-04T15:19:26.676Z,12.40
2023-03-04T15:22:04.382Z,15.73
2023-03-04T15:24:33.314Z,17.00
2023-03-04T15:27:00.882Z,18.88
2023-03-04T15:29:28.357Z,14.95
2023-03-04T15:31:55.910Z,18.10
2023-03-04T15:34:23.519Z,37.58
2023-03-04T15:36:51.959Z,14.80
2023-03-04T15:39:21.717Z,24.88
2023-03-04T15:41:50.948Z,18.52
2023-03-04T15:44:18.488Z,26.17
2023-03-04T15:46:46.016Z,23.00
2023-03-04T15:49:13.563Z,20.98
2023-03-04T15:51:41.299Z,19.52
2023-03-04T15:54:14.285Z,11.90
2023-03-04T15:59:13.436Z,19.15
2023-03-04T16:01:41.257Z,16.20
2023-03-04T16:04:12.637Z,19.25
2023-03-04T16:06:40.424Z,16.58
2023-03-04T16:09:14.212Z,12.52
2023-03-04T16:11:45.494Z,18.27
2023-03-04T16:14:16.018Z,23.02
2023-03-04T16:16:44.433Z,16.35
2023-03-04T16:19:12.030Z,17.95
2023-03-04T16:21:39.497Z,14.27
2023-03-04T16:24:07.566Z,17.23
2023-03-04T16:26:35.723Z,13.75
2023-03-04T16:29:03.313Z,16.33
2023-03-04T16:31:32.163Z,16.92
2023-03-04T16:33:59.673Z,18.92
2023-03-04T16:36:28.177Z,18.30
2023-03-04T16:38:56.684Z,19.83
2023-03-04T16:41:26.410Z,16.70
2023-03-04T16:43:56.655Z,13.93
2023-03-04T16:46:24.664Z,12.13
2023-03-04T16:48:53.461Z,20.35
2023-03-04T16:51:23.116Z,15.10
2023-03-04T16:53:53.382Z,16.75
2023-03-04T16:56:21.116Z,17.90
2023-03-04T16:58:48.959Z,16.95
2023-03-04T17:01:18.371Z,19.23
2023-03-04T17:03:46.622Z,15.40
2023-03-04T17:06:16.947Z,23.50
2023-03-04T17:08:44.484Z,22.67
2023-03-04T17:11:12.897Z,21.20
2023-03-04T17:13:40.380Z,23.58
2023-03-04T17:16:08.148Z,13.95
2023-03-04T17:18:35.698Z,18.75
2023-03-04T17:21:04.622Z,13.35
2023-03-04T17:23:35.071Z,11.18
2023-03-04T17:26:03.056Z,16.67
2023-03-04T17:28:30.740Z,15.65
2023-03-04T17:30:58.350Z,18.70
2023-03-04T17:33:26.074Z,14.57
2023-03-04T17:35:53.682Z,14.07
2023-03-04T17:38:21.228Z,14.50
2023-03-04T17:40:50.083Z,17.60
2023-03-04T17:43:17.846Z,12.43
2023-03-04T17:45:45.432Z,21.05
2023-03-04T17:48:15.164Z,18.45
2023-03-04T17:50:49.593Z,15.38
2023-03-04T17:53:17.116Z,20.65
2023-03-04T17:55:51.129Z,15.32
2023-03-04T17:58:18.621Z,12.52
2023-03-04T18:00:46.423Z,14.48
2023-03-04T18:03:14.264Z,17.83
2023-03-04T18:05:42.174Z,12.10
2023-03-04T18:08:09.871Z,12.18
2023-03-04T18:10:37.421Z,9.80
2023-03-04T18:13:06.579Z,13.93
2023-03-04T18:15:34.085Z,14.32
2023-03-04T18:18:01.562Z,12.80
2023-03-04T18:20:29.328Z,14.05
2023-03-04T18:22:58.577Z,9.20
2023-03-04T18:25:26.716Z,14.52
2023-03-04T18:27:54.178Z,16.38
2023-03-04T18:30:27.325Z,10.10
2023-03-04T18:32:55.021Z,18.05
2023-03-04T18:35:22.909Z,11.32
2023-03-04T18:37:50.762Z,12.55
2023-03-04T18:40:18.634Z,10.85
2023-03-04T18:42:46.140Z,12.50
2023-03-04T18:45:15.131Z,11.38
2023-03-04T18:47:45.731Z,15.55
2023-03-04T18:50:14.092Z,12.07
2023-03-04T18:52:41.594Z,11.95
2023-03-04T18:55:10.917Z,10.75
2023-03-04T18:57:39.197Z,12.93
2023-03-04T19:00:10.511Z,11.52
2023-03-04T19:02:41.131Z,18.50
2023-03-04T19:05:12.923Z,16.98
2023-03-04T19:07:40.419Z,10.95
2023-03-04T19:10:08.799Z,11.63
2023-03-04T19:12:36.512Z,13.68
2023-03-04T19:15:05.752Z,10.13
2023-03-04T19:17:35.730Z,9.57
2023-03-04T19:20:03.915Z,13.15
2023-03-04T19:22:32.789Z,11.45
2023-03-04T19:25:00.278Z,8.35
2023-03-04T19:27:28.302Z,14.50
2023-03-04T19:29:55.762Z,10.70
2023-03-04T19:32:23.383Z,15.02
2023-03-04T19:34:50.964Z,13.73
2023-03-04T19:37:18.746Z,21.20
2023-03-04T19:39:49.079Z,15.48
2023-03-04T19:42:17.236Z,14.73
2023-03-04T19:44:45.416Z,15.10
2023-03-04T19:47:13.011Z,11.57
2023-03-04T19:49:40.732Z,20.55
2023-03-04T19:52:08.245Z,14.98
2023-03-04T19:54:35.934Z,16.70
2023-03-04T19:57:05.150Z,15.82
2023-03-04T19:59:32.685Z,14.98
2023-03-04T20:02:01.307Z,14.65
2023-03-04T20:04:28.917Z,19.25
2023-03-04T20:06:56.531Z,16.60
2023-03-04T20:09:24.132Z,18.27
2023-03-04T20:11:58.337Z,11.70
2023-03-04T20:14:28.238Z,16.58
2023-03-04T20:16:59.133Z,14.48
2023-03-04T20:19:26.762Z,14.18
2023-03-04T20:21:54.270Z,17.40
2023-03-04T20:24:23.131Z,14.40
2023-03-04T20:26:51.726Z,15.15
2023-03-04T20:29:19.844Z,10.02
2023-03-04T20:31:49.140Z,12.15
2023-03-04T20:34:16.728Z,13.93
2023-03-04T20:36:44.235Z,13.27
2023-03-04T20:39:25.809Z,16.73
2023-03-04T20:41:54.896Z,11.95
2023-03-04T20:44:25.021Z,12.85
2023-03-04T20:46:54.059Z,13.15
2023-03-04T20:49:23.828Z,13.80
2023-03-04T20:51:51.789Z,14.10
2023-03-04T20:54:19.469Z,11.93
2023-03-04T20:56:47.170Z,25.02
2023-03-04T20:59:14.682Z,10.77
2023-03-04T21:01:44.238Z,7.95
2023-03-04T21:04:13.101Z,9.82
2023-03-04T21:06:41.249Z,14.43
2023-03-04T21:09:10.865Z,8.50
2023-03-04T21:11:40.912Z,13.15
2023-03-04T21:14:10.476Z,13.90
2023-03-04T21:16:37.990Z,14.25
2023-03-04T21:19:05.719Z,19.33
2023-03-04T21:21:34.474Z,17.90
2023-03-04T21:24:02.161Z,11.40
2023-03-04T21:26:29.610Z,13.25
2023-03-04T21:28:57.213Z,9.48
2023-03-04T21:31:26.881Z,10.25
2023-03-04T21:33:55.468Z,13.35
2023-03-04T21:36:24.234Z,10.45
2023-03-04T21:38:53.854Z,7.78
2023-03-04T21:41:23.627Z,11.07
2023-03-04T21:43:51.270Z,11.82
2023-03-04T21:46:19.422Z,11.07
2023-03-04T21:48:48.243Z,14.15
2023-03-04T21:51:17.244Z,9.13
2023-03-04T21:53:44.805Z,13.88
2023-03-04T21:56:13.801Z,8.95
2023-03-04T21:58:42.238Z,7.05
2023-03-04T22:01:10.893Z,9.65
2023-03-04T22:03:38.799Z,10.20
2023-03-04T22:06:07.139Z,8.30
2023-03-04T22:08:34.757Z,7.57
2023-03-04T22:11:05.082Z,9.25
2023-03-04T22:13:34.074Z,9.65
2023-03-04T22:16:02.182Z,7.28
2023-03-04T22:18:29.860Z,10.50
2023-03-04T22:21:01.125Z,8.52
2023-03-04T22:23:29.222Z,6.32
2023-03-04T22:25:59.260Z,12.52
2023-03-04T22:28:28.405Z,8.23
2023-03-04T22:30:57.734Z,13.25
2023-03-04T22:33:25.950Z,8.90
2023-03-04T22:35:53.783Z,6.28
2023-03-04T22:38:21.527Z,9.88
2023-03-04T22:40:50.472Z,7.63
2023-03-04T22:43:18.011Z,9.13
2023-03-04T22:45:45.651Z,8.13
2023-03-04T22:48:15.265Z,8.40
2023-03-04T22:50:42.814Z,12.70
2023-03-04T22:53:10.425Z,8.48
2023-03-04T22:55:38.212Z,8.50
2023-03-04T22:58:05.806Z,5.50
2023-03-04T23:00:33.457Z,5.05
2023-03-04T23:03:01.128Z,12.07
2023-03-04T23:05:30.091Z,7.10
2023-03-04T23:07:57.702Z,7.40
2023-03-04T23:10:26.082Z,10.95
2023-03-04T23:12:54.465Z,14.93
2023-03-04T23:15:22.661Z,10.02
2023-03-04T23:17:50.237Z,5.55
2023-03-04T23:20:19.222Z,7.03
2023-03-04T23:22:49.113Z,5.93
2023-03-04T23:25:17.941Z,4.28
2023-03-04T23:27:46.278Z,7.40
2023-03-04T23:30:16.413Z,12.77
2023-03-04T23:32:44.699Z,4.38
2023-03-04T23:35:12.420Z,8.27
2023-03-04T23:37:40.336Z,12.90
2023-03-04T23:40:10.728Z,12.43
2023-03-04T23:42:38.268Z,7.90
2023-03-04T23:45:07.050Z,11.18
2023-03-04T23:47:35.260Z,9.40
2023-03-04T23:50:03.920Z,9.00
2023-03-04T23:52:31.785Z,8.00
2023-03-04T23:54:59.399Z,10.52
2023-03-04T23:57:28.197Z,11.32
2023-03-04T23:59:55.917Z,13.35
